Time;durP1;ratioP1;P1;durP2;ratioP2;P2;SDS_P1;SDS_P2;PMS_P1;PMS_P2;Temp;Humidity;BMP_temperature;BMP_pressure;BME280_temperature;BME280_humidity;BME280_pressure;Samples;Min_cycle;Max_cycle;Signal;HPM_P1;HPM_P2
2022/10/18 00:02:32;;;;;;;;;;;23.20;68.80;;;;;;6191070;28;20061;-59
2022/10/18 00:05:37;;;;;;;1.13;0.98;;;23.00;69.20;;;;;;6188152;28;19929;-59
2022/10/18 00:08:38;;;;;;;1.60;0.80;;;22.90;68.50;;;;;;6188662;28;20139;-59
2022/10/18 00:11:40;;;;;;;1.27;1.10;;;23.00;68.50;;;;;;6177192;28;20057;-59
2022/10/18 00:14:42;;;;;;;1.63;1.10;;;23.40;68.70;;;;;;6170251;28;20057;-58
2022/10/18 00:17:44;;;;;;;1.13;1.02;;;23.00;67.90;;;;;;6188260;28;20095;-58
2022/10/18 00:20:54;;;;;;;1.40;1.20;;;22.80;67.80;;;;;;6169971;28;20637;-59
2022/10/18 00:23:56;;;;;;;1.42;0.88;;;23.30;68.10;;;;;;6154856;28;20042;-59
2022/10/18 00:26:58;;;;;;;1.13;0.82;;;23.40;68.20;;;;;;6187569;28;20049;-59
2022/10/18 00:29:59;;;;;;;1.83;0.90;;;22.80;68.30;;;;;;6187480;28;20192;-59
2022/10/18 00:33:01;;;;;;;1.20;1.10;;;22.90;68.30;;;;;;6170299;28;20038;-59
2022/10/18 00:36:03;;;;;;;1.15;0.80;;;23.00;68.20;;;;;;6185132;28;20056;-59
2022/10/18 00:39:07;;;;;;;1.02;0.80;;;23.10;68.50;;;;;;6187850;28;20057;-59
2022/10/18 00:42:18;;;;;;;1.40;1.15;;;22.90;68.20;;;;;;6160365;28;20069;-59
2022/10/18 00:45:21;;;;;;;0.85;0.70;;;23.00;67.60;;;;;;6188755;28;20962;-59
2022/10/18 00:48:24;;;;;;;0.80;0.70;;;23.10;68.40;;;;;;6189573;28;20051;-59
2022/10/18 00:51:29;;;;;;;1.02;0.75;;;23.20;68.50;;;;;;6190613;28;20084;-59
2022/10/18 00:54:33;;;;;;;1.10;0.80;;;22.60;68.10;;;;;;6175414;28;20037;-59
2022/10/18 00:57:36;;;;;;;0.90;0.80;;;22.90;68.10;;;;;;6188605;28;20045;-59
2022/10/18 01:00:39;;;;;;;1.23;0.95;;;22.70;67.90;;;;;;6187878;28;20165;-59
2022/10/18 01:03:41;;;;;;;1.10;1.00;;;23.60;68.70;;;;;;6185880;28;20041;-58
2022/10/18 01:06:52;;;;;;;1.73;1.00;;;23.00;68.30;;;;;;6195452;28;20056;-60
2022/10/18 01:10:02;;;;;;;1.20;0.90;;;22.60;68.20;;;;;;6188917;28;20184;-59
2022/10/18 01:13:19;;;;;;;1.33;1.10;;;23.10;68.60;;;;;;6183702;28;20053;-58
2022/10/18 01:16:32;;;;;;;1.20;1.10;;;22.70;68.50;;;;;;6170665;28;20830;-59
2022/10/18 01:20:01;;;;;;;1.13;0.90;;;22.70;68.50;;;;;;6182703;28;20050;-59
2022/10/18 01:23:07;;;;;;;0.95;0.80;;;23.20;69.70;;;;;;6166302;28;21233;-59
2022/10/18 01:26:20;;;;;;;1.13;0.90;;;23.10;69.00;;;;;;6168832;28;20042;-59
2022/10/18 01:29:32;;;;;;;1.10;1.00;;;23.10;69.00;;;;;;6186927;28;20251;-59
2022/10/18 01:32:37;;;;;;;;;;;22.90;69.10;;;;;;6193178;28;20926;-59
2022/10/18 01:35:43;;;;;;;1.10;0.93;;;22.80;69.30;;;;;;6190053;28;19936;-58
2022/10/18 01:38:47;;;;;;;0.95;0.73;;;23.20;69.30;;;;;;6179312;28;20939;-57
2022/10/18 01:41:51;;;;;;;1.02;0.93;;;22.80;69.20;;;;;;6151559;28;20053;-57
2022/10/18 01:44:53;;;;;;;1.00;0.77;;;23.30;69.60;;;;;;6188811;28;20562;-57
2022/10/18 01:47:56;;;;;;;0.75;0.75;;;23.20;69.60;;;;;;6182165;28;20054;-57
2022/10/18 01:50:58;;;;;;;0.90;0.70;;;22.90;69.50;;;;;;6183094;28;20477;-58
2022/10/18 01:54:00;;;;;;;0.80;0.80;;;23.10;69.70;;;;;;6186608;28;20037;-56
2022/10/18 01:57:08;;;;;;;1.00;0.90;;;22.90;69.50;;;;;;6185858;28;20758;-59
2022/10/18 02:00:13;;;;;;;1.00;0.80;;;23.10;69.70;;;;;;6188413;28;20475;-58
2022/10/18 02:03:21;;;;;;;1.20;1.10;;;22.80;69.70;;;;;;6186508;28;20259;-55
2022/10/18 02:06:28;;;;;;;0.88;0.80;;;23.30;69.90;;;;;;6166959;28;20096;-58
2022/10/18 02:09:40;;;;;;;0.88;0.80;;;23.10;69.90;;;;;;6182230;28;20119;-57
2022/10/18 02:12:45;;;;;;;0.95;0.82;;;23.30;70.10;;;;;;6145139;28;20869;-58
2022/10/18 02:15:50;;;;;;;0.63;0.63;;;23.20;70.00;;;;;;6163758;28;20350;-59
2022/10/18 02:18:56;;;;;;;1.48;0.90;;;22.90;69.80;;;;;;6153509;28;20402;-58
2022/10/18 02:21:59;;;;;;;0.77;0.77;;;22.90;69.80;;;;;;6151938;28;20045;-58
2022/10/18 02:25:05;;;;;;;0.80;0.70;;;23.10;70.00;;;;;;6186121;28;20087;-57
2022/10/18 02:28:07;;;;;;;0.90;0.80;;;23.00;70.00;;;;;;6163787;28;20517;-58
2022/10/18 02:31:12;;;;;;;;;;;22.90;70.20;;;;;;6180235;28;20637;-57
2022/10/18 02:34:20;;;;;;;0.75;0.75;;;23.10;70.30;;;;;;6179359;28;19929;-57
2022/10/18 02:37:26;;;;;;;0.80;0.80;;;22.90;70.00;;;;;;6164201;28;20495;-59
2022/10/18 02:40:33;;;;;;;;;;;23.10;70.10;;;;;;6153215;28;20050;-59
2022/10/18 02:43:34;;;;;;;0.70;0.60;;;23.20;70.30;;;;;;6190689;28;19976;-59
2022/10/18 02:46:36;;;;;;;;;;;23.10;70.40;;;;;;6188351;28;20037;-56
2022/10/18 02:49:38;;;;;;;0.70;0.60;;;23.20;70.60;;;;;;6184758;28;19971;-57
2022/10/18 02:52:39;;;;;;;0.60;0.60;;;23.20;70.40;;;;;;6188796;28;20296;-56
2022/10/18 02:55:41;;;;;;;0.80;0.70;;;22.70;70.20;;;;;;6183829;28;20138;-57
2022/10/18 02:58:42;;;;;;;;;;;23.20;70.60;;;;;;6188371;28;20243;-58
2022/10/18 03:01:43;;;;;;;0.80;0.70;;;23.00;70.40;;;;;;6190603;28;20072;-58
2022/10/18 03:04:45;;;;;;;;;;;22.80;70.30;;;;;;6191066;28;20584;-59
2022/10/18 03:07:50;;;;;;;0.77;0.68;;;22.70;70.60;;;;;;6191619;28;19956;-59
2022/10/18 03:10:51;;;;;;;0.63;0.60;;;23.00;70.40;;;;;;6186296;28;20931;-58
2022/10/18 03:13:53;;;;;;;1.98;0.70;;;23.40;70.80;;;;;;6186485;28;20161;-50
2022/10/18 03:16:54;;;;;;;;;;;22.90;70.70;;;;;;6186993;28;20797;-50
2022/10/18 03:19:56;;;;;;;1.88;0.77;;;22.70;70.80;;;;;;6183367;28;20701;-51
2022/10/18 03:22:57;;;;;;;1.88;0.77;;;23.10;70.90;;;;;;6185613;28;20621;-52
2022/10/18 03:25:59;;;;;;;;;;;23.10;71.00;;;;;;6184458;28;20422;-53
2022/10/18 03:29:00;;;;;;;;;;;23.20;70.90;;;;;;6164954;28;20048;-55
2022/10/18 03:32:02;;;;;;;0.80;0.80;;;22.80;71.00;;;;;;6191260;28;19921;-57
2022/10/18 03:35:05;;;;;;;0.80;0.63;;;22.80;70.70;;;;;;6194735;28;21014;-50
2022/10/18 03:38:09;;;;;;;1.08;0.70;;;22.90;70.80;;;;;;6195059;28;20053;-57
2022/10/18 03:41:11;;;;;;;0.80;0.60;;;23.20;70.90;;;;;;6194975;28;20148;-54
2022/10/18 03:44:12;;;;;;;0.43;0.40;;;23.20;71.10;;;;;;6187570;28;20545;-53
2022/10/18 03:47:14;;;;;;;;;;;22.60;70.80;;;;;;6178254;28;20046;-51
2022/10/18 03:50:16;;;;;;;0.45;0.35;;;22.70;71.00;;;;;;6182357;28;20428;-54
2022/10/18 03:53:17;;;;;;;0.40;0.38;;;22.70;70.60;;;;;;6181513;28;20718;-50
2022/10/18 03:56:18;;;;;;;;;;;23.10;70.90;;;;;;6170354;28;20880;-52
2022/10/18 03:59:21;;;;;;;0.50;0.47;;;23.00;71.00;;;;;;6195022;28;20000;-53
2022/10/18 04:02:22;;;;;;;0.40;0.40;;;23.10;70.80;;;;;;6190926;28;20083;-55
2022/10/18 04:05:26;;;;;;;0.50;0.45;;;22.80;70.70;;;;;;6174938;28;20902;-55
2022/10/18 04:08:28;;;;;;;0.30;0.30;;;22.60;70.30;;;;;;6184354;28;20053;-52
2022/10/18 04:11:30;;;;;;;0.60;0.47;;;22.90;70.40;;;;;;6181313;28;20055;-48
2022/10/18 04:14:31;;;;;;;0.65;0.50;;;22.60;70.40;;;;;;6187385;28;20152;-52
2022/10/18 04:17:33;;;;;;;;;;;23.20;70.70;;;;;;6178750;28;20591;-54
2022/10/18 04:20:35;;;;;;;0.80;0.65;;;22.80;70.80;;;;;;6171117;28;20341;-52
2022/10/18 04:23:36;;;;;;;0.77;0.57;;;23.30;70.70;;;;;;6175437;28;20344;-51
2022/10/18 04:26:40;;;;;;;1.00;0.60;;;23.10;70.70;;;;;;6181376;28;20152;-52
2022/10/18 04:29:41;;;;;;;;;;;22.90;70.60;;;;;;6183823;28;20137;-49
2022/10/18 04:32:42;;;;;;;0.88;0.77;;;22.80;70.70;;;;;;6179734;28;20810;-51
2022/10/18 04:35:45;;;;;;;1.00;0.80;;;23.20;70.50;;;;;;6177597;28;20042;-52
2022/10/18 04:38:46;;;;;;;2.10;0.80;;;23.10;70.50;;;;;;6178623;28;20129;-52
2022/10/18 04:41:48;;;;;;;0.70;0.70;;;22.70;70.30;;;;;;6178512;28;20159;-48
2022/10/18 04:44:49;;;;;;;0.98;0.70;;;23.10;70.80;;;;;;6178050;28;20279;-52
2022/10/18 04:47:50;;;;;;;;;;;22.70;70.60;;;;;;6175849;28;20376;-51
2022/10/18 04:50:53;;;;;;;0.50;0.50;;;22.70;70.90;;;;;;6173340;28;19929;-52
2022/10/18 04:53:55;;;;;;;1.20;0.90;;;23.20;70.30;;;;;;6172735;28;20056;-52
2022/10/18 04:56:57;;;;;;;1.02;0.65;;;23.10;70.70;;;;;;6165932;28;20569;-51
2022/10/18 04:59:58;;;;;;;;;;;23.10;70.90;;;;;;6173597;28;20431;-55
2022/10/18 05:02:59;;;;;;;0.60;0.60;;;22.70;70.90;;;;;;6174505;28;20175;-52
2022/10/18 05:06:01;;;;;;;1.10;0.52;;;22.60;70.50;;;;;;6177277;28;20049;-58
2022/10/18 05:09:04;;;;;;;0.65;0.57;;;23.00;70.50;;;;;;6184295;28;20050;-55
2022/10/18 05:12:06;;;;;;;0.68;0.43;;;23.00;70.30;;;;;;6181600;28;20331;-57
2022/10/18 05:15:07;;;;;;;;;;;23.00;70.50;;;;;;6179199;28;20156;-56
2022/10/18 05:18:09;;;;;;;0.70;0.43;;;22.90;70.50;;;;;;6183170;28;19935;-57
2022/10/18 05:21:11;;;;;;;;;;;22.70;70.30;;;;;;6185170;28;20050;-56
2022/10/18 05:24:12;;;;;;;0.70;0.50;;;23.10;70.70;;;;;;6186135;28;19925;-57
2022/10/18 05:27:14;;;;;;;0.73;0.60;;;23.10;70.50;;;;;;6177437;28;20053;-57
2022/10/18 05:30:15;;;;;;;;;;;22.90;70.30;;;;;;6154587;28;20045;-53
2022/10/18 05:33:17;;;;;;;1.02;0.90;;;22.60;70.20;;;;;;6181585;28;19982;-55
2022/10/18 05:36:18;;;;;;;;;;;23.10;70.20;;;;;;6179059;28;20069;-57
2022/10/18 05:39:20;;;;;;;1.02;0.90;;;23.00;70.30;;;;;;6176165;28;19921;-56
2022/10/18 05:42:22;;;;;;;0.93;0.70;;;22.90;70.10;;;;;;6169387;28;20052;-56
2022/10/18 05:48:50;;;;;;;0.77;0.50;;;22.80;68.70;;;;;;6185063;28;19932;-56
2022/10/18 05:51:52;;;;;;;0.80;0.63;;;22.80;70.00;;;;;;6170510;28;21087;-55
2022/10/18 05:54:56;;;;;;;0.85;0.50;;;22.50;70.00;;;;;;6200358;28;20851;-54
2022/10/18 05:57:57;;;;;;;0.47;0.40;;;23.00;70.10;;;;;;6190569;28;20151;-54
2022/10/18 06:00:59;;;;;;;;;;;22.90;70.10;;;;;;6187439;28;20048;-52
2022/10/18 06:04:00;;;;;;;;;;;22.70;69.90;;;;;;6172274;28;19929;-52
2022/10/18 06:07:03;;;;;;;0.50;0.45;;;23.30;70.50;;;;;;6171601;28;19928;-53
2022/10/18 06:10:05;;;;;;;0.70;0.50;;;22.90;69.90;;;;;;6162169;28;20048;-52
2022/10/18 06:13:07;;;;;;;0.98;0.55;;;22.50;69.70;;;;;;6166299;28;20127;-54
2022/10/18 06:16:09;;;;;;;0.82;0.30;;;22.90;69.80;;;;;;6163647;28;20048;-54
2022/10/18 06:19:11;;;;;;;0.95;0.50;;;22.70;69.60;;;;;;6153502;28;21289;-54
2022/10/18 06:22:13;;;;;;;;;;;22.60;69.60;;;;;;6130171;28;20167;-53
2022/10/18 06:25:14;;;;;;;0.40;0.32;;;23.00;70.00;;;;;;6130975;28;20016;-55
2022/10/18 06:28:16;;;;;;;0.52;0.50;;;22.90;69.60;;;;;;6123665;28;20128;-55
2022/10/18 06:31:19;;;;;;;0.50;0.50;;;23.00;69.80;;;;;;6130815;28;20060;-55
2022/10/18 06:34:21;;;;;;;0.73;0.45;;;22.50;69.40;;;;;;6132921;28;20049;-54
2022/10/18 06:37:23;;;;;;;0.98;0.70;;;22.80;69.50;;;;;;6138612;28;20112;-50
2022/10/18 06:40:25;;;;;;;2.70;0.60;;;23.10;69.80;;;;;;6111521;28;21103;-51
2022/10/18 06:43:26;;;;;;;1.42;0.68;;;23.10;70.10;;;;;;6105547;28;21134;-54
2022/10/18 06:46:28;;;;;;;0.52;0.40;;;22.50;69.50;;;;;;6086131;28;20050;-53
2022/10/18 06:49:30;;;;;;;1.02;0.40;;;23.10;70.00;;;;;;6083012;28;20048;-54
2022/10/18 06:52:31;;;;;;;;;;;23.30;69.90;;;;;;6095788;28;20055;-51
2022/10/18 06:55:34;;;;;;;0.50;0.50;;;23.20;70.00;;;;;;6053665;28;21103;-52
2022/10/18 06:58:36;;;;;;;0.73;0.60;;;22.90;69.80;;;;;;6033577;28;20152;-55
2022/10/18 07:01:38;;;;;;;1.48;0.85;;;22.80;69.70;;;;;;6029237;28;20845;-52
2022/10/18 07:04:40;;;;;;;1.85;0.82;;;22.80;69.60;;;;;;6011353;28;21163;-53
2022/10/18 07:07:42;;;;;;;1.35;0.60;;;23.20;69.80;;;;;;6010054;28;21121;-56
2022/10/18 07:10:52;;;;;;;0.45;0.40;;;23.20;69.20;;;;;;5980412;28;20048;-55
2022/10/18 07:13:59;;;;;;;0.73;0.47;;;23.10;69.80;;;;;;5956187;28;20160;-57
2022/10/18 07:17:01;;;;;;;1.50;0.80;;;23.20;70.10;;;;;;5955556;28;20045;-56
2022/10/18 07:20:03;;;;;;;1.25;0.80;;;23.10;70.00;;;;;;5950263;28;20236;-57
2022/10/18 07:23:07;;;;;;;2.70;0.80;;;23.20;69.80;;;;;;5956986;28;35337;-53
2022/10/18 07:26:13;;;;;;;1.65;0.80;;;23.30;70.10;;;;;;5947240;28;20134;-56
2022/10/18 07:29:15;;;;;;;1.00;0.77;;;23.10;69.80;;;;;;5892147;28;20045;-56
2022/10/18 07:32:17;;;;;;;1.30;0.60;;;22.90;69.80;;;;;;5869344;28;22813;-56
2022/10/18 07:35:18;;;;;;;0.82;0.80;;;23.00;69.70;;;;;;5897487;28;23883;-57
2022/10/18 07:38:21;;;;;;;0.80;0.73;;;23.40;70.10;;;;;;5964398;28;20182;-59
2022/10/18 07:41:26;;;;;;;1.20;0.70;;;23.30;70.00;;;;;;5911035;28;20143;-59
2022/10/18 07:44:29;;;;;;;2.25;0.80;;;22.70;69.50;;;;;;5934792;28;22433;-57
2022/10/18 07:47:30;;;;;;;1.83;0.88;;;23.40;69.80;;;;;;5903316;28;21772;-60
2022/10/18 07:50:36;;;;;;;1.80;1.00;;;23.10;69.30;;;;;;5918281;28;21190;-57
2022/10/18 07:53:38;;;;;;;0.90;0.80;;;23.00;68.90;;;;;;5927571;28;20088;-58
2022/10/18 07:56:41;;;;;;;2.17;0.70;;;23.60;69.60;;;;;;5949201;28;20064;-57
2022/10/18 07:59:45;;;;;;;1.55;0.73;;;23.20;69.60;;;;;;5911339;28;30378;-58
2022/10/18 08:02:46;;;;;;;3.45;0.60;;;23.50;69.50;;;;;;5868650;28;21577;-56
2022/10/18 08:05:52;;;;;;;0.75;0.63;;;23.60;69.40;;;;;;5890690;28;22124;-57
2022/10/18 08:08:54;;;;;;;1.13;0.70;;;23.50;68.90;;;;;;5865447;28;29695;-58
2022/10/18 08:11:55;;;;;;;0.68;0.50;;;23.40;69.00;;;;;;5876136;28;28502;-57
2022/10/18 08:14:58;;;;;;;0.65;0.60;;;23.60;69.20;;;;;;5891467;28;20489;-58
2022/10/18 08:18:01;;;;;;;0.70;0.60;;;23.60;68.30;;;;;;5931666;28;20052;-57
2022/10/18 08:21:04;;;;;;;0.65;0.50;;;23.50;68.90;;;;;;5929831;28;20061;-58
2022/10/18 08:24:08;;;;;;;0.80;0.50;;;22.80;68.50;;;;;;5879083;28;20053;-57
2022/10/18 08:27:10;;;;;;;1.55;0.50;;;23.60;68.80;;;;;;5877071;28;20045;-58
2022/10/18 08:30:13;;;;;;;0.50;0.50;;;23.60;68.70;;;;;;5911648;28;20396;-58
2022/10/18 08:33:16;;;;;;;1.10;0.65;;;23.40;68.70;;;;;;5932778;28;21164;-57
2022/10/18 08:36:18;;;;;;;1.25;0.50;;;23.60;68.60;;;;;;5911782;28;20040;-59
2022/10/18 08:39:20;;;;;;;0.47;0.40;;;23.40;68.50;;;;;;5888843;28;22359;-58
2022/10/18 08:42:38;;;;;;;0.60;0.52;;;23.30;68.30;;;;;;5867628;28;27562;-58
2022/10/18 08:45:43;;;;;;;0.43;0.40;;;23.40;68.30;;;;;;5885239;28;20077;-54
2022/10/18 08:48:47;;;;;;;1.23;0.40;;;23.40;68.10;;;;;;5867564;28;29810;-56
2022/10/18 08:51:50;;;;;;;0.93;0.50;;;23.70;68.50;;;;;;5845942;28;23203;-58
2022/10/18 08:55:00;;;;;;;0.50;0.40;;;23.70;68.40;;;;;;5858407;28;20945;-58
2022/10/18 08:58:04;;;;;;;1.00;0.50;;;23.20;68.00;;;;;;5865338;28;20038;-58
2022/10/18 09:01:22;;;;;;;0.80;0.40;;;23.10;68.00;;;;;;5854046;28;20037;-55
2022/10/18 09:04:37;;;;;;;0.40;0.30;;;23.20;68.00;;;;;;5865452;28;20060;-58
2022/10/18 09:07:55;;;;;;;0.50;0.40;;;23.50;68.10;;;;;;5899920;28;20037;-58
2022/10/18 09:11:09;;;;;;;0.45;0.38;;;23.60;67.90;;;;;;5876284;28;22150;-58
2022/10/18 09:14:37;;;;;;;0.47;0.30;;;23.50;68.30;;;;;;5891526;28;21647;-58
2022/10/18 09:17:49;;;;;;;0.70;0.50;;;23.00;67.70;;;;;;5878328;28;23450;-58
2022/10/18 09:20:55;;;;;;;0.30;0.30;;;23.80;68.10;;;;;;5910679;28;20113;-55
2022/10/18 09:24:04;;;;;;;1.35;0.65;;;23.70;68.00;;;;;;5864497;28;20045;-57
2022/10/18 09:27:15;;;;;;;0.45;0.43;;;23.70;67.80;;;;;;5877647;28;24378;-57
2022/10/18 09:30:25;;;;;;;0.73;0.40;;;23.50;67.80;;;;;;5842857;28;24830;-57
2022/10/18 09:33:38;;;;;;;0.60;0.50;;;23.70;67.70;;;;;;5859433;28;20053;-58
2022/10/18 09:36:40;;;;;;;0.63;0.32;;;23.80;67.60;;;;;;5830316;28;20045;-56
2022/10/18 09:39:43;;;;;;;0.45;0.30;;;23.50;67.60;;;;;;5871121;28;21106;-57
2022/10/18 09:42:53;;;;;;;1.02;0.32;;;23.40;67.30;;;;;;5868824;28;22228;-57
2022/10/18 09:45:56;;;;;;;0.40;0.40;;;23.70;67.40;;;;;;5871831;28;20060;-55
2022/10/18 09:49:04;;;;;;;1.75;0.50;;;23.50;67.40;;;;;;5910420;28;20053;-56
2022/10/18 09:52:12;;;;;;;0.28;0.28;;;23.60;67.20;;;;;;5908576;28;20041;-53
2022/10/18 09:55:19;;;;;;;0.50;0.35;;;23.80;67.60;;;;;;5880044;28;20049;-53
2022/10/18 09:58:25;;;;;;;0.30;0.30;;;24.10;67.50;;;;;;5912162;28;20037;-55
2022/10/18 10:01:30;;;;;;;0.63;0.40;;;23.60;67.30;;;;;;5909671;28;21656;-57
2022/10/18 10:04:32;;;;;;;0.40;0.30;;;23.50;67.00;;;;;;5837675;28;31530;-55
2022/10/18 10:07:41;;;;;;;1.15;0.40;;;23.90;67.30;;;;;;5903030;28;20071;-56
2022/10/18 10:10:48;;;;;;;0.30;0.30;;;23.80;67.10;;;;;;5921728;28;20135;-59
2022/10/18 10:13:50;;;;;;;0.70;0.40;;;23.90;67.10;;;;;;5928368;28;21168;-58
2022/10/18 10:16:54;;;;;;;0.45;0.45;;;23.90;67.00;;;;;;5941302;28;21427;-58
2022/10/18 10:20:00;;;;;;;0.30;0.30;;;23.70;66.90;;;;;;5953816;28;20085;-56
2022/10/18 10:23:07;;;;;;;0.38;0.30;;;23.90;66.90;;;;;;5968550;28;20064;-53
2022/10/18 10:26:22;;;;;;;0.30;0.30;;;24.10;67.00;;;;;;5965597;28;20176;-55
2022/10/18 10:29:47;;;;;;;0.47;0.30;;;24.00;66.70;;;;;;5954527;28;20286;-57
2022/10/18 10:32:50;;;;;;;0.45;0.45;;;23.80;66.80;;;;;;5977749;28;20127;-55
2022/10/18 10:35:58;;;;;;;0.45;0.43;;;24.20;66.60;;;;;;5970509;28;21506;-55
2022/10/18 10:39:05;;;;;;;0.20;0.20;;;23.70;66.60;;;;;;5991443;28;20037;-56
2022/10/18 10:42:13;;;;;;;0.38;0.28;;;23.90;66.40;;;;;;6004465;28;20041;-57
2022/10/18 10:45:16;;;;;;;0.52;0.30;;;23.70;81.80;;;;;;6057401;28;20064;-57
2022/10/18 10:48:19;;;;;;;0.20;0.20;;;24.00;66.40;;;;;;6024969;28;20045;-54
2022/10/18 10:51:29;;;;;;;1.08;0.60;;;23.90;66.30;;;;;;6027696;28;20959;-56
2022/10/18 10:54:35;;;;;;;0.75;0.20;;;23.70;66.10;;;;;;6008135;28;20614;-57
2022/10/18 10:57:37;;;;;;;0.43;0.22;;;23.60;66.00;;;;;;6047125;28;20051;-56
2022/10/18 11:00:42;;;;;;;0.52;0.40;;;24.10;66.30;;;;;;6037317;28;21860;-57
2022/10/18 11:03:46;;;;;;;1.42;0.40;;;25.20;66.90;;;;;;6017433;28;21132;-57
2022/10/18 11:07:03;;;;;;;0.50;0.30;;;24.10;66.20;;;;;;6063302;28;20152;-57
2022/10/18 11:10:11;;;;;;;0.40;0.30;;;23.80;66.00;;;;;;6052525;28;20041;-57
2022/10/18 11:13:27;;;;;;;0.20;0.20;;;24.60;66.60;;;;;;6034856;28;21721;-55
2022/10/18 11:16:35;;;;;;;0.30;0.30;;;24.10;66.10;;;;;;6079041;28;20044;-53
2022/10/18 11:19:43;;;;;;;0.38;0.30;;;24.10;65.90;;;;;;6088045;28;20042;-57
2022/10/18 11:22:56;;;;;;;0.82;0.50;;;23.80;65.70;;;;;;6041437;28;20420;-56
2022/10/18 11:26:11;;;;;;;0.65;0.35;;;24.50;66.10;;;;;;6000126;28;20049;-54
2022/10/18 11:29:29;;;;;;;0.57;0.40;;;24.10;66.30;;;;;;6022060;28;20110;-57
2022/10/18 11:32:38;;;;;;;0.88;0.50;;;24.60;66.00;;;;;;6021069;28;20048;-57
2022/10/18 11:35:47;;;;;;;0.50;0.38;;;24.00;65.90;;;;;;5996294;28;20045;-55
2022/10/18 11:38:56;;;;;;;1.05;0.47;;;24.10;65.70;;;;;;5973268;28;20053;-54
2022/10/18 11:42:06;;;;;;;1.00;0.60;;;24.00;65.60;;;;;;6008163;28;21974;-56
2022/10/18 11:45:29;;;;;;;0.55;0.35;;;24.70;65.90;;;;;;5960711;28;20120;-54
2022/10/18 11:48:59;;;;;;;1.13;0.50;;;24.20;65.80;;;;;;5925858;28;20155;-57
2022/10/18 11:52:10;;;;;;;1.05;0.60;;;24.20;65.70;;;;;;5967160;28;20135;-57
2022/10/18 11:55:27;;;;;;;0.50;0.50;;;24.00;65.40;;;;;;5988941;28;21844;-54
2022/10/18 11:58:45;;;;;;;0.70;0.57;;;24.50;65.80;;;;;;6005146;28;20243;-56
2022/10/18 12:01:56;;;;;;;1.02;0.80;;;24.20;65.70;;;;;;5876301;28;20044;-56
2022/10/18 12:05:01;;;;;;;1.05;0.68;;;23.70;65.40;;;;;;5911079;28;20045;-53
2022/10/18 12:08:28;;;;;;;1.17;0.95;;;24.10;65.60;;;;;;5900667;22;20445;-50
2022/10/18 12:11:32;;;;;;;0.90;0.80;;;23.80;65.60;;;;;;5868837;28;20041;-53
2022/10/18 12:14:39;;;;;;;0.68;0.68;;;24.00;65.90;;;;;;5818952;28;20607;-53
2022/10/18 12:17:44;;;;;;;1.13;0.90;;;24.40;66.10;;;;;;5821152;28;20049;-50
2022/10/18 12:20:55;;;;;;;0.90;0.80;;;24.00;65.90;;;;;;5812564;28;20040;-53
2022/10/18 12:24:00;;;;;;;1.10;0.93;;;24.20;66.00;;;;;;5779213;28;22921;-54
2022/10/18 12:27:02;;;;;;;1.52;0.90;;;24.40;66.20;;;;;;5783574;28;20112;-55
2022/10/18 12:30:14;;;;;;;0.93;0.70;;;23.90;66.10;;;;;;5822973;28;21540;-55
2022/10/18 12:33:21;;;;;;;0.75;0.70;;;23.90;66.10;;;;;;5779098;28;21729;-54
2022/10/18 12:36:46;;;;;;;1.45;0.90;;;24.00;66.10;;;;;;5735675;28;28767;-57
2022/10/18 12:39:51;;;;;;;1.42;0.85;;;24.30;66.30;;;;;;5860747;28;20037;-58
2022/10/18 12:43:18;;;;;;;1.00;0.88;;;23.90;66.30;;;;;;5878157;28;20041;-58
2022/10/18 12:46:20;;;;;;;2.42;0.77;;;24.40;66.60;;;;;;5838072;28;20049;-58
2022/10/18 12:49:26;;;;;;;2.20;1.05;;;24.10;66.30;;;;;;5847586;28;20059;-58
2022/10/18 12:52:32;;;;;;;1.35;0.82;;;24.10;66.40;;;;;;5838926;28;21507;-58
2022/10/18 12:55:36;;;;;;;1.40;1.00;;;23.90;66.30;;;;;;5814221;28;24678;-57
2022/10/18 12:58:41;;;;;;;0.95;0.80;;;24.20;66.50;;;;;;5797038;28;21375;-57
2022/10/18 13:02:13;;;;;;;1.05;0.70;;;24.40;66.70;;;;;;5819624;28;20052;-56
2022/10/18 13:05:45;;;;;;;1.10;0.77;;;23.90;66.50;;;;;;5810709;28;20091;-57
2022/10/18 13:09:20;;;;;;;1.88;0.82;;;23.90;66.40;;;;;;5781752;28;20164;-58
2022/10/18 13:12:49;;;;;;;1.25;0.75;;;23.60;66.60;;;;;;5803126;28;20065;-57
2022/10/18 13:15:59;;;;;;;0.80;0.60;;;24.30;67.00;;;;;;5781273;28;20059;-58
2022/10/18 13:19:17;;;;;;;0.70;0.57;;;23.90;66.80;;;;;;5746716;28;20052;-58
2022/10/18 13:22:47;;;;;;;0.77;0.60;;;24.00;67.10;;;;;;5786573;28;20142;-58
2022/10/18 13:26:06;;;;;;;0.85;0.45;;;24.30;67.20;;;;;;5807786;28;20043;-59
2022/10/18 13:29:27;;;;;;;0.80;0.50;;;23.60;66.90;;;;;;5799117;28;20041;-59
2022/10/18 13:32:34;;;;;;;0.90;0.50;;;24.20;67.20;;;;;;5766828;28;20042;-59
2022/10/18 13:35:53;;;;;;;0.98;0.88;;;24.10;67.50;;;;;;5709765;28;20727;-59
2022/10/18 13:39:03;;;;;;;1.45;0.90;;;24.20;67.60;;;;;;5770753;28;22484;-58
2022/10/18 13:42:29;;;;;;;1.30;0.90;;;24.40;67.80;;;;;;5861103;28;20037;-57
2022/10/18 13:45:54;;;;;;;0.77;0.70;;;24.30;67.90;;;;;;5724349;28;20630;-55
2022/10/18 13:48:59;;;;;;;1.05;0.80;;;24.20;68.00;;;;;;5741143;28;20066;-59
2022/10/18 13:52:08;;;;;;;0.90;0.70;;;24.00;67.60;;;;;;5710802;28;21748;-58
2022/10/18 13:55:28;;;;;;;0.70;0.60;;;24.20;67.70;;;;;;5790630;28;20049;-58
2022/10/18 13:58:42;;;;;;;0.87;0.47;;;24.20;67.80;;;;;;5783036;28;20127;-58
2022/10/18 14:02:10;;;;;;;0.52;0.52;;;23.70;67.40;;;;;;5710288;28;20351;-58
2022/10/18 14:05:21;;;;;;;0.98;0.75;;;24.00;67.60;;;;;;5801715;28;20258;-58
2022/10/18 14:08:33;;;;;;;1.45;0.82;;;24.50;67.70;;;;;;5828844;28;20046;-58
2022/10/18 14:11:40;;;;;;;0.88;0.68;;;24.40;67.60;;;;;;5796142;28;20131;-58
2022/10/18 14:14:53;;;;;;;0.75;0.60;;;24.10;67.40;;;;;;5821664;28;20131;-58
2022/10/18 14:18:01;;;;;;;0.50;0.50;;;24.20;67.50;;;;;;5856878;28;20168;-58
2022/10/18 14:21:08;;;;;;;0.80;0.60;;;24.30;67.60;;;;;;5835643;28;20041;-58
2022/10/18 14:24:20;;;;;;;1.02;0.70;;;24.20;67.60;;;;;;5879113;28;20045;-59
2022/10/18 14:27:24;;;;;;;0.43;0.43;;;23.80;67.50;;;;;;5841569;28;20206;-58
2022/10/18 14:30:27;;;;;;;0.65;0.50;;;24.40;67.90;;;;;;5781171;28;20041;-56
2022/10/18 14:33:33;;;;;;;0.80;0.60;;;24.20;67.70;;;;;;5771860;28;21644;-58
2022/10/18 14:36:39;;;;;;;0.60;0.60;;;24.40;68.10;;;;;;5836530;28;20077;-56
2022/10/18 14:39:40;;;;;;;0.70;0.70;;;24.10;68.10;;;;;;5876299;28;20172;-59
2022/10/18 14:42:48;;;;;;;1.05;0.80;;;23.80;67.90;;;;;;5899464;28;20048;-58
2022/10/18 14:45:50;;;;;;;0.65;0.50;;;24.20;67.90;;;;;;5906622;28;21345;-58
2022/10/18 14:48:54;;;;;;;0.82;0.60;;;24.20;68.10;;;;;;5884297;28;22063;-57
2022/10/18 14:51:59;;;;;;;0.60;0.50;;;24.20;67.90;;;;;;5872197;28;20081;-59
2022/10/18 14:55:01;;;;;;;0.82;0.70;;;24.20;68.00;;;;;;5900755;28;20103;-58
2022/10/18 14:58:07;;;;;;;0.85;0.60;;;24.40;68.10;;;;;;5901997;28;20052;-58
2022/10/18 15:01:15;;;;;;;1.08;0.80;;;24.20;68.00;;;;;;5892934;28;20044;-58
2022/10/18 15:04:17;;;;;;;0.80;0.70;;;23.80;67.60;;;;;;5887376;28;20041;-59
2022/10/18 15:07:19;;;;;;;1.27;0.60;;;24.60;68.70;;;;;;5865065;28;21203;-58
2022/10/18 15:10:24;;;;;;;0.70;0.70;;;23.90;68.10;;;;;;5854526;28;21475;-58
2022/10/18 15:13:26;;;;;;;0.98;0.70;;;24.30;68.40;;;;;;5888941;28;20529;-58
2022/10/18 15:16:31;;;;;;;1.90;1.00;;;24.10;68.30;;;;;;5929431;28;21546;-58
2022/10/18 15:19:34;;;;;;;0.50;0.50;;;24.30;68.70;;;;;;5922736;28;20052;-58
2022/10/18 15:22:36;;;;;;;0.60;0.50;;;24.30;68.80;;;;;;5865685;28;20147;-58
2022/10/18 15:25:38;;;;;;;1.38;0.90;;;24.20;68.70;;;;;;5918439;28;20131;-58
2022/10/18 15:28:49;;;;;;;0.85;0.65;;;24.30;68.80;;;;;;5943050;28;21573;-57
2022/10/18 15:31:51;;;;;;;1.23;0.75;;;24.10;68.50;;;;;;5926191;28;20052;-58
2022/10/18 15:34:54;;;;;;;1.05;0.82;;;24.10;68.60;;;;;;5872429;28;20106;-58
2022/10/18 15:37:57;;;;;;;2.90;0.60;;;24.00;68.70;;;;;;5894243;28;22281;-57
2022/10/18 15:40:59;;;;;;;1.10;0.80;;;24.30;68.70;;;;;;5903936;28;20037;-58
2022/10/18 15:44:06;;;;;;;0.90;0.68;;;24.20;68.80;;;;;;5929658;28;20053;-57
2022/10/18 15:47:20;;;;;;;1.13;0.80;;;23.80;68.50;;;;;;5912617;28;21000;-57
2022/10/18 15:50:37;;;;;;;0.50;0.50;;;24.10;68.70;;;;;;5905069;28;20057;-56
2022/10/18 15:53:44;;;;;;;0.68;0.50;;;24.20;68.90;;;;;;5913937;28;20041;-58
2022/10/18 15:56:45;;;;;;;1.92;0.60;;;24.20;68.70;;;;;;5973243;28;20044;-58
2022/10/18 15:59:52;;;;;;;0.60;0.60;;;24.30;68.90;;;;;;5961875;28;20052;-57
2022/10/18 16:02:57;;;;;;;0.60;0.50;;;24.00;68.80;;;;;;5946325;28;20048;-57
2022/10/18 16:06:05;;;;;;;0.88;0.60;;;24.20;68.70;;;;;;5965005;28;21728;-58
2022/10/18 16:09:10;;;;;;;0.40;0.40;;;24.90;69.20;;;;;;6013386;28;20041;-58
2022/10/18 16:12:12;;;;;;;0.77;0.57;;;24.20;68.70;;;;;;6012800;28;20052;-58
2022/10/18 16:15:13;;;;;;;0.40;0.40;;;24.50;69.00;;;;;;6003063;28;21249;-58
2022/10/18 16:18:17;;;;;;;0.77;0.47;;;24.40;68.80;;;;;;5990559;28;20085;-57
2022/10/18 16:21:26;;;;;;;1.15;0.88;;;24.40;69.00;;;;;;5978408;28;20038;-57